Terminal Aerodrome Forecast
Issued by NWS Grand Forks, ND

Home | Current Version | Previous Version | Graphics & Text | Print | Product List | Glossary On
Versions: 1 2 3 4 5 6 7 8 9 10 11 12 13 14 15 16 17 18 19 20
000
FTUS43 KFGF 301500 AAA
TAFFAR
TAF AMD
KFAR 301540Z 3016/3112 18013KT P6SM FEW019
     FM301900 18010KT P6SM BKN020
     FM310200 32013KT P6SM BKN015
     FM310600 36015G24KT P6SM BKN015=

USA.gov is the U.S. government's official web portal to all federal, state and local government web resources and services.